KCVO/CVO METAR and TAF weather

Enter ICAO airport designator
Station Type Date Time Source
KCVO METAR 2024/04/15 07:56 UTC NOAA

KCVO 150756Z AUTO 25004KT 10SM OVC036 08/05 A3024 RMK AO2 SLP241 T00780050 401610078


Station Type Date Time Source
KCVO Decoded METAR 2024/04/15 07:56 UTC NOAA

Corvallis, Corvallis Municipal Airport, OR, United States (KCVO) 44-30N 123-17W
Apr 15, 2024 - 03:56 AM EDT / 2024.04.15 0756 UTC
Wind: from the WSW (250 degrees) at 5 MPH (4 KT):0
Visibility: 10 mile(s):0
Sky conditions: overcast
Temperature: 46.0 F (7.8 C)
Dew Point: 41.0 F (5.0 C)
Relative Humidity: 82%
Pressure (altimeter): 30.24 in. Hg (1024 hPa)
ob: KCVO 150756Z AUTO 25004KT 10SM OVC036 08/05 A3024 RMK AO2 SLP241 T00780050 401610078
cycle: 8

Station Type Date Time Source
KCVO TAF UTC NOAA

Error!

Example: see airport list